createdAt,value
2022-12-17T00:01:20.376Z,101914.13
2022-12-17T00:04:06.198Z,101922.84
2022-12-17T00:06:51.360Z,101924.09
2022-12-17T00:09:36.500Z,101928.69
2022-12-17T00:12:21.622Z,101930.78
2022-12-17T00:15:06.754Z,101930.09
2022-12-17T00:17:51.977Z,101942.91
2022-12-17T00:20:37.239Z,101943.91
2022-12-17T00:23:24.057Z,101950.13
2022-12-17T00:26:10.749Z,101953.13
2022-12-17T00:28:56.030Z,101951.50
2022-12-17T00:31:41.873Z,101959.53
2022-12-17T00:34:27.063Z,101958.31
2022-12-17T00:37:12.464Z,101962.84
2022-12-17T00:39:59.362Z,101962.97
2022-12-17T00:42:44.695Z,101958.56
2022-12-17T00:45:29.850Z,101957.72
2022-12-17T00:48:14.910Z,101969.59
2022-12-17T00:51:00.040Z,101962.66
2022-12-17T00:53:45.093Z,101966.34
2022-12-17T00:56:30.219Z,101958.19
2022-12-17T00:59:15.275Z,101961.50
2022-12-17T01:02:00.455Z,101960.75
2022-12-17T01:04:45.608Z,101970.03
2022-12-17T01:07:30.987Z,101966.72
2022-12-17T01:10:16.239Z,101963.91
2022-12-17T01:13:01.687Z,101967.88
2022-12-17T01:15:57.508Z,101965.56
2022-12-17T01:18:42.408Z,101966.31
2022-12-17T01:21:27.635Z,101969.19
2022-12-17T01:24:13.528Z,101973.56
2022-12-17T01:26:58.699Z,101979.59
2022-12-17T01:29:43.735Z,101968.25
2022-12-17T01:32:28.875Z,101966.72
2022-12-17T01:35:14.524Z,101986.25
2022-12-17T01:37:59.565Z,101977.28
2022-12-17T01:40:44.878Z,101988.56
2022-12-17T01:43:30.860Z,101983.97
2022-12-17T01:46:16.444Z,101995.47
2022-12-17T01:49:06.280Z,101994.03
2022-12-17T01:51:52.309Z,102005.56
2022-12-17T01:54:37.903Z,101998.00
2022-12-17T01:57:24.851Z,101991.88
2022-12-17T02:00:16.288Z,101991.88
2022-12-17T02:03:01.988Z,101982.84
2022-12-17T02:05:53.056Z,101988.38
2022-12-17T02:08:56.579Z,101983.28
2022-12-17T02:11:57.114Z,101973.81
2022-12-17T02:14:57.925Z,101979.91
2022-12-17T02:17:51.054Z,101990.25
2022-12-17T02:20:45.365Z,101994.22
2022-12-17T02:23:56.569Z,101996.53
2022-12-17T02:26:52.476Z,102009.53
2022-12-17T02:29:39.454Z,102004.91
2022-12-17T02:32:25.054Z,102004.63
2022-12-17T02:35:10.183Z,102008.66
2022-12-17T02:37:55.219Z,102011.41
2022-12-17T02:40:41.551Z,102019.50
2022-12-17T02:43:27.739Z,102014.47
2022-12-17T02:46:14.475Z,102007.78
2022-12-17T02:48:59.467Z,102008.47
2022-12-17T02:51:45.010Z,102010.69
2022-12-17T02:54:29.842Z,102019.13
2022-12-17T02:57:14.947Z,102013.97
2022-12-17T02:59:59.852Z,102012.34
2022-12-17T03:02:45.106Z,102013.94
2022-12-17T03:05:46.060Z,102021.06
2022-12-17T03:08:31.928Z,102024.28
2022-12-17T03:11:17.069Z,102025.19
2022-12-17T03:14:02.089Z,102032.25
2022-12-17T03:16:47.491Z,102024.91
2022-12-17T03:19:32.605Z,102028.00
2022-12-17T03:22:17.943Z,102017.31
2022-12-17T03:25:02.754Z,102024.59
2022-12-17T03:27:47.909Z,102023.25
2022-12-17T03:30:36.138Z,102023.84
2022-12-17T03:33:22.689Z,102024.75
2022-12-17T03:36:11.757Z,102034.63
2022-12-17T03:38:56.937Z,102031.00
2022-12-17T03:41:42.139Z,102037.59
2022-12-17T03:44:27.194Z,102030.84
2022-12-17T03:47:12.239Z,102040.19
2022-12-17T03:49:57.470Z,102033.50
2022-12-17T03:52:42.521Z,102040.91
2022-12-17T03:55:27.684Z,102045.28
2022-12-17T03:58:12.682Z,102035.91
2022-12-17T04:00:57.735Z,102042.28
2022-12-17T04:03:42.828Z,102049.91
2022-12-17T04:06:27.659Z,102050.75
2022-12-17T04:09:12.730Z,102044.81
2022-12-17T04:11:57.841Z,102042.50
2022-12-17T04:14:42.918Z,102040.31
2022-12-17T04:17:28.156Z,102037.81
2022-12-17T04:20:13.243Z,102049.41
2022-12-17T04:22:58.444Z,102050.81
2022-12-17T04:25:43.474Z,102048.81
2022-12-17T04:28:28.399Z,102046.59
2022-12-17T04:31:17.969Z,102036.09
2022-12-17T04:34:02.860Z,102042.13
2022-12-17T04:36:47.964Z,102045.84
2022-12-17T04:39:32.748Z,102048.38
2022-12-17T04:42:17.753Z,102054.44
2022-12-17T04:45:02.890Z,102062.47
2022-12-17T04:47:47.992Z,102051.50
2022-12-17T04:50:33.155Z,102053.09
2022-12-17T04:53:21.947Z,102057.44
2022-12-17T04:56:07.616Z,102047.84
2022-12-17T04:58:52.713Z,102059.78
2022-12-17T05:01:37.873Z,102056.72
2022-12-17T05:04:22.938Z,102058.50
2022-12-17T05:07:07.664Z,102057.38
2022-12-17T05:09:52.619Z,102059.53
2022-12-17T05:12:37.711Z,102056.25
2022-12-17T05:15:23.403Z,102058.78
2022-12-17T05:18:08.299Z,102059.19
2022-12-17T05:20:53.270Z,102054.59
2022-12-17T05:23:38.562Z,102076.53
2022-12-17T05:26:41.379Z,102076.28
2022-12-17T05:29:26.981Z,102078.38
2022-12-17T05:32:12.070Z,102080.81
2022-12-17T05:34:57.158Z,102071.25
2022-12-17T05:37:42.390Z,102080.84
2022-12-17T05:40:27.883Z,102088.59
2022-12-17T05:43:18.057Z,102092.28
2022-12-17T05:46:03.794Z,102095.31
2022-12-17T05:48:48.845Z,102091.44
2022-12-17T05:51:38.491Z,102101.13
2022-12-17T05:54:24.114Z,102106.63
2022-12-17T05:57:09.073Z,102100.19
2022-12-17T05:59:54.317Z,102106.19
2022-12-17T06:02:39.612Z,102105.31
2022-12-17T06:05:24.687Z,102105.06
2022-12-17T06:08:09.887Z,102106.84
2022-12-17T06:10:54.960Z,102112.22
2022-12-17T06:13:40.177Z,102112.47
2022-12-17T06:16:25.515Z,102116.81
2022-12-17T06:19:10.749Z,102120.84
2022-12-17T06:21:55.514Z,102120.28
2022-12-17T06:24:45.682Z,102121.19
2022-12-17T06:27:31.278Z,102132.88
2022-12-17T06:30:18.867Z,102138.25
2022-12-17T06:33:04.768Z,102134.47
2022-12-17T06:35:50.106Z,102132.38
2022-12-17T06:38:35.246Z,102136.72
2022-12-17T06:41:20.498Z,102125.59
2022-12-17T06:44:05.382Z,102131.97
2022-12-17T06:46:50.515Z,102130.75
2022-12-17T06:49:35.637Z,102134.38
2022-12-17T06:52:20.758Z,102137.06
2022-12-17T06:55:05.758Z,102127.56
2022-12-17T06:57:50.883Z,102138.66
2022-12-17T07:00:36.652Z,102136.19
2022-12-17T07:03:21.919Z,102137.38
2022-12-17T07:06:07.044Z,102151.72
2022-12-17T07:08:52.130Z,102153.22
2022-12-17T07:11:37.442Z,102167.13
2022-12-17T07:14:22.487Z,102160.13
2022-12-17T07:17:07.533Z,102164.59
2022-12-17T07:19:52.655Z,102163.09
2022-12-17T07:22:37.762Z,102168.00
2022-12-17T07:25:22.741Z,102171.75
2022-12-17T07:28:16.209Z,102176.13
2022-12-17T07:31:01.016Z,102167.94
2022-12-17T07:33:45.851Z,102179.81
2022-12-17T07:36:31.091Z,102181.31
2022-12-17T07:39:16.177Z,102179.75
2022-12-17T07:42:01.128Z,102176.69
2022-12-17T07:44:46.298Z,102180.59
2022-12-17T07:47:31.496Z,102180.31
2022-12-17T07:50:16.543Z,102182.47
2022-12-17T07:53:01.451Z,102189.25
2022-12-17T07:55:46.896Z,102192.63
2022-12-17T07:58:32.056Z,102202.19
2022-12-17T08:01:20.812Z,102203.16
2022-12-17T08:04:06.067Z,102208.16
2022-12-17T08:06:52.999Z,102205.31
2022-12-17T08:09:41.564Z,102217.06
2022-12-17T08:12:26.691Z,102224.19
2022-12-17T08:15:11.756Z,102237.31
2022-12-17T08:17:56.711Z,102228.22
2022-12-17T08:20:41.873Z,102226.31
2022-12-17T08:23:27.004Z,102225.22
2022-12-17T08:26:12.290Z,102231.84
2022-12-17T08:28:57.209Z,102234.13
2022-12-17T08:31:42.883Z,102241.81
2022-12-17T08:34:27.699Z,102240.81
2022-12-17T08:37:12.779Z,102250.38
2022-12-17T08:39:57.698Z,102252.06
2022-12-17T08:42:42.962Z,102254.13
2022-12-17T08:45:28.609Z,102258.09
2022-12-17T08:48:21.759Z,102263.00
2022-12-17T08:51:06.838Z,102260.44
2022-12-17T08:53:51.855Z,102261.94
2022-12-17T08:56:37.035Z,102259.31
2022-12-17T08:59:22.215Z,102265.59
2022-12-17T09:02:07.476Z,102264.53
2022-12-17T09:04:52.732Z,102253.22
2022-12-17T09:07:38.003Z,102270.19
2022-12-17T09:10:23.710Z,102270.53
2022-12-17T09:13:08.759Z,102265.94
2022-12-17T09:15:53.500Z,102268.09
2022-12-17T09:18:40.150Z,102277.34
2022-12-17T09:21:26.234Z,102264.16
2022-12-17T09:24:11.208Z,102267.25
2022-12-17T09:27:16.175Z,102257.31
2022-12-17T09:30:01.592Z,102268.66
2022-12-17T09:32:46.943Z,102261.44
2022-12-17T09:35:32.182Z,102274.66
2022-12-17T09:38:17.654Z,102256.44
2022-12-17T09:41:06.401Z,102264.56
2022-12-17T09:44:10.250Z,102271.41
2022-12-17T09:47:04.314Z,102270.50
2022-12-17T09:49:50.204Z,102272.88
2022-12-17T09:52:45.500Z,102271.06
2022-12-17T09:55:36.682Z,102271.06
2022-12-17T09:58:22.379Z,102268.72
2022-12-17T10:01:08.889Z,102270.94
2022-12-17T10:03:54.559Z,102260.66
2022-12-17T10:06:44.769Z,102258.88
2022-12-17T10:09:32.360Z,102260.28
2022-12-17T10:12:18.932Z,102268.50
2022-12-17T10:15:04.246Z,102263.41
2022-12-17T10:17:49.241Z,102272.41
2022-12-17T10:20:45.592Z,102258.06
2022-12-17T10:23:41.780Z,102263.22
2022-12-17T10:26:26.951Z,102263.06
2022-12-17T10:29:30.304Z,102257.75
2022-12-17T10:32:37.396Z,102264.72
2022-12-17T10:35:46.219Z,102267.56
2022-12-17T10:38:46.042Z,102271.91
2022-12-17T10:41:59.366Z,102261.69
2022-12-17T10:44:52.787Z,102267.97
2022-12-17T10:47:39.111Z,102270.63
2022-12-17T10:50:42.892Z,102270.53
2022-12-17T10:53:40.055Z,102276.56
2022-12-17T10:56:25.538Z,102269.00
2022-12-17T10:59:12.082Z,102265.75
2022-12-17T11:02:01.071Z,102267.16
2022-12-17T11:04:48.768Z,102270.34
2022-12-17T11:07:44.134Z,102279.25
2022-12-17T11:10:38.356Z,102275.56
2022-12-17T11:13:41.682Z,102276.97
2022-12-17T11:16:37.351Z,102284.69
2022-12-17T11:19:28.663Z,102268.84
2022-12-17T11:22:16.470Z,102278.69
2022-12-17T11:25:43.312Z,102280.09
2022-12-17T11:28:41.995Z,102274.19
2022-12-17T11:31:36.491Z,102267.91
2022-12-17T11:34:41.499Z,102267.03
2022-12-17T11:37:49.846Z,102272.88
2022-12-17T11:40:40.104Z,102265.59
2022-12-17T11:43:35.956Z,102271.13
2022-12-17T11:46:35.327Z,102263.97
2022-12-17T11:49:57.640Z,102272.03
2022-12-17T11:53:13.018Z,102260.13
2022-12-17T11:56:26.927Z,102268.19
2022-12-17T11:59:39.550Z,102265.88
2022-12-17T12:02:57.190Z,102273.09
2022-12-17T12:06:01.055Z,102267.22
2022-12-17T12:08:53.526Z,102264.25
2022-12-17T12:11:56.380Z,102255.56
2022-12-17T12:14:59.610Z,102267.00
2022-12-17T12:17:58.257Z,102270.41
2022-12-17T12:21:11.273Z,102265.22
2022-12-17T12:24:20.400Z,102270.13
2022-12-17T12:27:19.206Z,102272.53
2022-12-17T12:30:15.333Z,102269.56
2022-12-17T12:33:15.438Z,102272.09
2022-12-17T12:36:00.970Z,102274.16
2022-12-17T12:38:53.092Z,102262.09
2022-12-17T12:41:59.561Z,102267.63
2022-12-17T12:45:03.605Z,102276.59
2022-12-17T12:48:10.995Z,102268.28
2022-12-17T12:51:22.141Z,102269.66
2022-12-17T12:54:18.439Z,102274.72
2022-12-17T12:57:06.227Z,102271.72
2022-12-17T12:59:54.082Z,102278.09
2022-12-17T13:02:39.531Z,102283.69
2022-12-17T13:05:34.827Z,102290.22
2022-12-17T13:08:07.297Z,102285.97
2022-12-17T13:10:35.002Z,102291.81
2022-12-17T13:13:12.655Z,102293.47
2022-12-17T13:15:42.817Z,102298.13
2022-12-17T13:18:36.074Z,102294.03
2022-12-17T13:21:26.102Z,102293.75
2022-12-17T13:23:53.215Z,102286.47
2022-12-17T13:26:22.646Z,102287.00
2022-12-17T13:29:04.072Z,102283.59
2022-12-17T13:32:04.348Z,102287.19
2022-12-17T13:35:10.088Z,102289.63
2022-12-17T13:37:55.144Z,102290.06
2022-12-17T13:41:09.374Z,102294.28
2022-12-17T13:43:54.268Z,102296.59
2022-12-17T13:46:23.729Z,102289.88
2022-12-17T13:48:58.113Z,102293.00
2022-12-17T13:51:28.729Z,102310.47
2022-12-17T13:53:59.252Z,102305.41
2022-12-17T13:56:30.204Z,102306.69
2022-12-17T13:59:00.935Z,102306.44
2022-12-17T14:01:30.767Z,102312.38
2022-12-17T14:04:06.925Z,102311.25
2022-12-17T14:06:36.824Z,102310.91
2022-12-17T14:09:03.949Z,102307.66
2022-12-17T14:11:50.715Z,102303.28
2022-12-17T14:14:30.153Z,102302.50
2022-12-17T14:16:56.818Z,102307.38
2022-12-17T14:19:24.528Z,102312.59
2022-12-17T14:21:51.897Z,102307.66
2022-12-17T14:24:27.706Z,102305.66
2022-12-17T14:26:59.999Z,102314.72
2022-12-17T14:29:31.229Z,102305.56
2022-12-17T14:32:03.623Z,102319.69
2022-12-17T14:34:41.262Z,102305.94
2022-12-17T14:37:16.634Z,102314.00
2022-12-17T14:39:45.172Z,102317.91
2022-12-17T14:42:30.703Z,102321.53
2022-12-17T14:45:03.594Z,102308.38
2022-12-17T14:47:31.502Z,102310.41
2022-12-17T14:49:59.448Z,102321.78
2022-12-17T14:52:53.229Z,102315.66
2022-12-17T14:55:23.021Z,102313.59
2022-12-17T14:57:50.678Z,102315.78
2022-12-17T15:00:17.278Z,102314.34
2022-12-17T15:02:44.914Z,102322.56
2022-12-17T15:05:15.722Z,102324.09
2022-12-17T15:07:42.587Z,102325.75
2022-12-17T15:10:13.395Z,102331.28
2022-12-17T15:12:42.788Z,102319.00
2022-12-17T15:15:15.807Z,102330.47
2022-12-17T15:17:42.415Z,102327.75
2022-12-17T15:20:16.890Z,102330.47
2022-12-17T15:22:43.452Z,102331.00
2022-12-17T15:25:14.655Z,102333.94
2022-12-17T15:27:41.548Z,102336.53
2022-12-17T15:30:12.700Z,102325.78
2022-12-17T15:32:39.161Z,102332.31
2022-12-17T15:35:06.133Z,102333.59
2022-12-17T15:37:32.574Z,102335.84
2022-12-17T15:39:59.092Z,102339.81
2022-12-17T15:42:44.042Z,102339.22
2022-12-17T15:45:10.670Z,102335.50
2022-12-17T15:47:37.376Z,102344.59
2022-12-17T15:50:04.886Z,102353.56
2022-12-17T15:52:31.362Z,102347.94
2022-12-17T15:54:57.824Z,102346.03
2022-12-17T15:57:24.299Z,102351.78
2022-12-17T15:59:51.630Z,102353.31
2022-12-17T16:02:18.271Z,102359.91
2022-12-17T16:04:44.810Z,102354.97
2022-12-17T16:07:11.244Z,102347.94
2022-12-17T16:09:37.704Z,102354.88
2022-12-17T16:12:04.227Z,102355.44
2022-12-17T16:14:30.687Z,102373.78
2022-12-17T16:16:57.130Z,102377.31
2022-12-17T16:19:23.739Z,102370.97
2022-12-17T16:21:50.197Z,102361.38
2022-12-17T16:24:16.651Z,102367.00
2022-12-17T16:26:43.108Z,102373.94
2022-12-17T16:29:09.613Z,102375.06
2022-12-17T16:31:36.145Z,102375.06
2022-12-17T16:34:03.084Z,102382.19
2022-12-17T16:36:29.601Z,102380.19
2022-12-17T16:38:56.061Z,102389.75
2022-12-17T16:41:22.895Z,102389.81
2022-12-17T16:43:49.505Z,102395.44
2022-12-17T16:46:38.122Z,102384.72
2022-12-17T16:49:09.010Z,102380.81
2022-12-17T16:51:36.215Z,102388.69
2022-12-17T16:54:13.301Z,102378.53
2022-12-17T16:56:40.721Z,102378.91
2022-12-17T16:59:08.462Z,102388.31
2022-12-17T17:01:35.676Z,102388.22
2022-12-17T17:04:04.403Z,102384.91
2022-12-17T17:06:33.765Z,102388.91
2022-12-17T17:09:06.313Z,102401.91
2022-12-17T17:11:32.965Z,102404.03
2022-12-17T17:13:59.512Z,102408.56
2022-12-17T17:16:26.713Z,102410.84
2022-12-17T17:18:54.179Z,102407.13
2022-12-17T17:21:20.592Z,102414.31
2022-12-17T17:23:48.926Z,102416.41
2022-12-17T17:26:16.123Z,102421.72
2022-12-17T17:28:43.071Z,102421.00
2022-12-17T17:31:12.403Z,102420.56
2022-12-17T17:33:43.084Z,102418.97
2022-12-17T17:36:11.655Z,102422.19
2022-12-17T17:38:39.569Z,102434.22
2022-12-17T17:41:08.704Z,102430.41
2022-12-17T17:43:35.558Z,102429.22
2022-12-17T17:46:15.759Z,102441.03
2022-12-17T17:48:43.895Z,102440.09
2022-12-17T17:51:29.532Z,102442.69
2022-12-17T17:54:11.007Z,102445.72
2022-12-17T17:56:41.738Z,102435.97
2022-12-17T17:59:13.394Z,102442.47
2022-12-17T18:01:43.194Z,102441.06
2022-12-17T18:04:16.962Z,102433.59
2022-12-17T18:07:02.602Z,102443.25
2022-12-17T18:09:31.481Z,102443.59
2022-12-17T18:12:17.939Z,102451.53
2022-12-17T18:15:12.104Z,102454.19
2022-12-17T18:17:31.515Z,102459.09
2022-12-17T18:19:58.224Z,102457.97
2022-12-17T18:22:24.733Z,102453.56
2022-12-17T18:24:51.164Z,102459.09
2022-12-17T18:27:17.991Z,102459.88
2022-12-17T18:29:44.454Z,102472.25
2022-12-17T18:32:10.924Z,102456.78
2022-12-17T18:34:37.425Z,102471.03
2022-12-17T18:37:05.501Z,102471.28
2022-12-17T18:39:33.004Z,102466.41
2022-12-17T18:42:18.154Z,102461.63
2022-12-17T18:44:44.607Z,102465.53
2022-12-17T18:47:11.260Z,102463.59
2022-12-17T18:49:37.881Z,102467.03
2022-12-17T18:52:04.403Z,102468.84
2022-12-17T18:54:31.355Z,102468.25
2022-12-17T18:57:02.262Z,102468.31
2022-12-17T18:59:30.443Z,102467.94
2022-12-17T19:01:57.529Z,102482.13
2022-12-17T19:04:25.249Z,102484.22
2022-12-17T19:06:53.679Z,102482.78
2022-12-17T19:09:31.208Z,102487.03
2022-12-17T19:11:58.535Z,102488.13
2022-12-17T19:14:25.749Z,102484.88
2022-12-17T19:16:53.892Z,102490.75
2022-12-17T19:19:21.297Z,102489.31
2022-12-17T19:21:48.778Z,102505.19
2022-12-17T19:24:17.328Z,102495.78
2022-12-17T19:26:44.855Z,102492.75
2022-12-17T19:29:13.215Z,102485.00
2022-12-17T19:31:40.107Z,102497.63
2022-12-17T19:34:09.658Z,102500.59
2022-12-17T19:36:36.468Z,102494.72
2022-12-17T19:39:07.237Z,102503.72
2022-12-17T19:41:34.081Z,102508.34
2022-12-17T19:44:03.058Z,102513.78
2022-12-17T19:46:32.111Z,102510.03
2022-12-17T19:48:59.034Z,102512.22
2022-12-17T19:51:27.366Z,102510.06
2022-12-17T19:53:54.811Z,102512.34
2022-12-17T19:56:29.686Z,102520.66
2022-12-17T19:59:02.144Z,102522.31
2022-12-17T20:01:33.693Z,102522.16
2022-12-17T20:04:00.525Z,102526.41
2022-12-17T20:06:29.375Z,102527.25
2022-12-17T20:08:55.935Z,102526.06
2022-12-17T20:11:34.638Z,102530.44
2022-12-17T20:14:17.822Z,102531.19
2022-12-17T20:16:58.713Z,102525.28
2022-12-17T20:19:31.161Z,102525.75
2022-12-17T20:21:59.213Z,102522.72
2022-12-17T20:24:31.217Z,102521.13
2022-12-17T20:26:59.381Z,102506.06
2022-12-17T20:29:26.606Z,102517.88
2022-12-17T20:31:55.018Z,102524.72
2022-12-17T20:34:23.452Z,102532.38
2022-12-17T20:36:51.096Z,102531.25
2022-12-17T20:39:26.202Z,102543.44
2022-12-17T20:41:57.972Z,102537.19
2022-12-17T20:44:25.567Z,102531.19
2022-12-17T20:46:52.555Z,102534.25
2022-12-17T20:49:19.747Z,102539.41
2022-12-17T20:51:46.295Z,102544.56
2022-12-17T20:54:12.823Z,102541.69
2022-12-17T20:56:39.885Z,102550.25
2022-12-17T20:59:08.849Z,102544.19
2022-12-17T21:01:36.574Z,102549.44
2022-12-17T21:04:04.046Z,102549.66
2022-12-17T21:06:34.644Z,102553.13
2022-12-17T21:09:01.732Z,102545.47
2022-12-17T21:11:30.531Z,102546.41
2022-12-17T21:13:57.650Z,102542.91
2022-12-17T21:16:27.655Z,102543.75
2022-12-17T21:18:55.539Z,102547.19
2022-12-17T21:21:24.335Z,102557.13
2022-12-17T21:23:51.049Z,102552.13
2022-12-17T21:26:27.300Z,102552.72
2022-12-17T21:28:55.485Z,102549.78
2022-12-17T21:31:27.692Z,102562.13
2022-12-17T21:33:58.990Z,102572.59
2022-12-17T21:36:27.899Z,102573.94
2022-12-17T21:38:54.972Z,102580.72
2022-12-17T21:41:23.817Z,102573.84
2022-12-17T21:43:57.925Z,102568.28
2022-12-17T21:46:27.187Z,102576.09
2022-12-17T21:48:54.615Z,102569.34
2022-12-17T21:51:22.063Z,102566.84
2022-12-17T21:53:52.956Z,102568.03
2022-12-17T21:56:20.116Z,102557.50
2022-12-17T21:58:47.161Z,102564.66
2022-12-17T22:01:18.914Z,102564.69
2022-12-17T22:03:47.114Z,102572.31
2022-12-17T22:06:17.240Z,102568.50
2022-12-17T22:08:45.462Z,102574.50
2022-12-17T22:11:21.090Z,102577.88
2022-12-17T22:14:08.590Z,102581.84
2022-12-17T22:16:47.066Z,102566.38
2022-12-17T22:19:22.440Z,102574.38
2022-12-17T22:21:50.258Z,102578.47
2022-12-17T22:24:21.398Z,102577.66
2022-12-17T22:26:48.417Z,102573.41
2022-12-17T22:29:37.780Z,102579.75
2022-12-17T22:32:28.279Z,102574.78
2022-12-17T22:36:08.295Z,102575.84
2022-12-17T22:39:59.397Z,102567.78
2022-12-17T22:44:30.301Z,102568.34
2022-12-17T22:44:44.078Z,102584.06
2022-12-17T22:46:16.539Z,102575.34
2022-12-17T22:48:43.128Z,102583.50
2022-12-17T22:51:13.305Z,102584.22
2022-12-17T22:53:53.961Z,102585.03
2022-12-17T22:56:32.330Z,102580.56
2022-12-17T22:59:08.864Z,102583.91
2022-12-17T23:01:35.760Z,102584.47
2022-12-17T23:04:03.735Z,102589.72
2022-12-17T23:06:30.329Z,102587.56
2022-12-17T23:08:56.818Z,102575.56
2022-12-17T23:11:25.306Z,102579.25
2022-12-17T23:13:52.918Z,102574.38
2022-12-17T23:16:20.237Z,102574.50
2022-12-17T23:18:48.302Z,102584.78
2022-12-17T23:21:17.972Z,102585.25
2022-12-17T23:23:44.566Z,102595.25
2022-12-17T23:26:19.892Z,102598.03
2022-12-17T23:28:46.668Z,102590.19
2022-12-17T23:31:16.219Z,102588.31
2022-12-17T23:33:42.973Z,102588.63
2022-12-17T23:36:11.830Z,102586.47
2022-12-17T23:38:38.966Z,102582.88
2022-12-17T23:41:07.267Z,102600.81
2022-12-17T23:43:34.203Z,102590.59
2022-12-17T23:46:00.778Z,102588.47
2022-12-17T23:48:31.734Z,102582.56
2022-12-17T23:50:58.944Z,102576.03
2022-12-17T23:53:26.599Z,102579.94
2022-12-17T23:55:53.140Z,102583.28
2022-12-17T23:58:19.917Z,102575.84
